sensor_id;sensor_type;location;lat;lon;timestamp;P1;durP1;ratioP1;P2;durP2;ratioP2
51828;SDS011;37881;48.024;8.774;2022-08-14T00:01:57;7.57;;;4.75;;
51828;SDS011;37881;48.024;8.774;2022-08-14T00:04:30;6.93;;;4.93;;
51828;SDS011;37881;48.024;8.774;2022-08-14T00:07:10;6.67;;;4.67;;
51828;SDS011;37881;48.024;8.774;2022-08-14T00:09:40;7.75;;;4.88;;
51828;SDS011;37881;48.024;8.774;2022-08-14T00:12:28;7.32;;;5.20;;
51828;SDS011;37881;48.024;8.774;2022-08-14T00:17:43;9.52;;;5.07;;
51828;SDS011;37881;48.024;8.774;2022-08-14T00:20:14;6.40;;;4.60;;
51828;SDS011;37881;48.024;8.774;2022-08-14T00:22:49;7.72;;;4.90;;
51828;SDS011;37881;48.024;8.774;2022-08-14T00:25:23;7.57;;;4.78;;
51828;SDS011;37881;48.024;8.774;2022-08-14T00:28:07;6.35;;;4.50;;
51828;SDS011;37881;48.024;8.774;2022-08-14T00:30:43;7.50;;;4.88;;
51828;SDS011;37881;48.024;8.774;2022-08-14T00:33:11;7.40;;;5.07;;
51828;SDS011;37881;48.024;8.774;2022-08-14T00:35:42;6.85;;;5.10;;
51828;SDS011;37881;48.024;8.774;2022-08-14T00:38:30;8.38;;;5.38;;
51828;SDS011;37881;48.024;8.774;2022-08-14T00:40:59;7.05;;;4.90;;
51828;SDS011;37881;48.024;8.774;2022-08-14T00:43:26;7.93;;;5.10;;
51828;SDS011;37881;48.024;8.774;2022-08-14T00:46:00;8.57;;;5.03;;
51828;SDS011;37881;48.024;8.774;2022-08-14T00:48:34;7.55;;;5.20;;
51828;SDS011;37881;48.024;8.774;2022-08-14T00:51:05;7.90;;;5.10;;
51828;SDS011;37881;48.024;8.774;2022-08-14T00:53:34;6.80;;;5.20;;
51828;SDS011;37881;48.024;8.774;2022-08-14T00:56:04;6.97;;;4.97;;
51828;SDS011;37881;48.024;8.774;2022-08-14T00:58:36;8.07;;;4.77;;
51828;SDS011;37881;48.024;8.774;2022-08-14T01:01:11;7.18;;;4.90;;
51828;SDS011;37881;48.024;8.774;2022-08-14T01:03:42;8.40;;;5.10;;
51828;SDS011;37881;48.024;8.774;2022-08-14T01:06:11;8.27;;;4.95;;
51828;SDS011;37881;48.024;8.774;2022-08-14T01:08:44;7.25;;;4.85;;
51828;SDS011;37881;48.024;8.774;2022-08-14T01:11:25;8.60;;;5.10;;
51828;SDS011;37881;48.024;8.774;2022-08-14T01:14:01;7.50;;;5.00;;
51828;SDS011;37881;48.024;8.774;2022-08-14T01:16:49;8.32;;;5.00;;
51828;SDS011;37881;48.024;8.774;2022-08-14T01:19:20;7.00;;;4.93;;
51828;SDS011;37881;48.024;8.774;2022-08-14T01:22:09;7.18;;;5.25;;
51828;SDS011;37881;48.024;8.774;2022-08-14T01:24:38;7.20;;;5.03;;
51828;SDS011;37881;48.024;8.774;2022-08-14T01:27:12;7.00;;;5.10;;
51828;SDS011;37881;48.024;8.774;2022-08-14T01:29:40;7.00;;;4.88;;
51828;SDS011;37881;48.024;8.774;2022-08-14T01:32:27;11.27;;;7.40;;
51828;SDS011;37881;48.024;8.774;2022-08-14T01:34:55;13.43;;;8.20;;
51828;SDS011;37881;48.024;8.774;2022-08-14T01:37:43;13.57;;;8.37;;
51828;SDS011;37881;48.024;8.774;2022-08-14T01:40:27;12.77;;;8.18;;
51828;SDS011;37881;48.024;8.774;2022-08-14T01:43:07;13.88;;;7.85;;
51828;SDS011;37881;48.024;8.774;2022-08-14T01:45:36;15.13;;;9.63;;
51828;SDS011;37881;48.024;8.774;2022-08-14T01:48:06;16.58;;;8.90;;
51828;SDS011;37881;48.024;8.774;2022-08-14T01:50:40;8.63;;;6.20;;
51828;SDS011;37881;48.024;8.774;2022-08-14T01:53:09;8.43;;;5.93;;
51828;SDS011;37881;48.024;8.774;2022-08-14T01:55:36;8.48;;;6.40;;
51828;SDS011;37881;48.024;8.774;2022-08-14T01:58:06;11.57;;;6.05;;
51828;SDS011;37881;48.024;8.774;2022-08-14T02:00:49;9.07;;;6.38;;
51828;SDS011;37881;48.024;8.774;2022-08-14T02:03:21;8.77;;;5.70;;
51828;SDS011;37881;48.024;8.774;2022-08-14T02:05:49;8.10;;;5.60;;
51828;SDS011;37881;48.024;8.774;2022-08-14T02:08:16;7.35;;;5.45;;
51828;SDS011;37881;48.024;8.774;2022-08-14T02:11:00;8.32;;;5.68;;
51828;SDS011;37881;48.024;8.774;2022-08-14T02:13:52;8.52;;;5.95;;
51828;SDS011;37881;48.024;8.774;2022-08-14T02:16:36;7.70;;;5.70;;
51828;SDS011;37881;48.024;8.774;2022-08-14T02:19:09;8.52;;;5.80;;
51828;SDS011;37881;48.024;8.774;2022-08-14T02:21:42;7.75;;;5.75;;
51828;SDS011;37881;48.024;8.774;2022-08-14T02:24:16;8.10;;;5.70;;
51828;SDS011;37881;48.024;8.774;2022-08-14T02:27:06;8.90;;;5.18;;
51828;SDS011;37881;48.024;8.774;2022-08-14T02:29:53;7.47;;;5.43;;
51828;SDS011;37881;48.024;8.774;2022-08-14T02:32:27;9.25;;;5.70;;
51828;SDS011;37881;48.024;8.774;2022-08-14T02:35:08;7.43;;;5.25;;
51828;SDS011;37881;48.024;8.774;2022-08-14T02:37:47;7.80;;;5.50;;
51828;SDS011;37881;48.024;8.774;2022-08-14T02:40:16;7.80;;;5.88;;
51828;SDS011;37881;48.024;8.774;2022-08-14T02:42:44;8.93;;;6.10;;
51828;SDS011;37881;48.024;8.774;2022-08-14T02:45:19;8.57;;;5.60;;
51828;SDS011;37881;48.024;8.774;2022-08-14T02:47:48;8.60;;;5.70;;
51828;SDS011;37881;48.024;8.774;2022-08-14T02:50:23;8.13;;;5.72;;
51828;SDS011;37881;48.024;8.774;2022-08-14T02:52:52;8.45;;;5.80;;
51828;SDS011;37881;48.024;8.774;2022-08-14T02:55:28;8.50;;;5.73;;
51828;SDS011;37881;48.024;8.774;2022-08-14T02:57:56;9.38;;;5.95;;
51828;SDS011;37881;48.024;8.774;2022-08-14T03:00:30;7.95;;;6.28;;
51828;SDS011;37881;48.024;8.774;2022-08-14T03:02:58;8.35;;;5.70;;
51828;SDS011;37881;48.024;8.774;2022-08-14T03:05:33;8.20;;;5.90;;
51828;SDS011;37881;48.024;8.774;2022-08-14T03:08:06;10.10;;;6.17;;
51828;SDS011;37881;48.024;8.774;2022-08-14T03:10:40;8.45;;;5.97;;
51828;SDS011;37881;48.024;8.774;2022-08-14T03:13:16;8.80;;;5.80;;
51828;SDS011;37881;48.024;8.774;2022-08-14T03:15:46;7.90;;;5.60;;
51828;SDS011;37881;48.024;8.774;2022-08-14T03:18:22;17.15;;;10.55;;
51828;SDS011;37881;48.024;8.774;2022-08-14T03:21:01;9.13;;;6.20;;
51828;SDS011;37881;48.024;8.774;2022-08-14T03:23:32;8.77;;;5.95;;
51828;SDS011;37881;48.024;8.774;2022-08-14T03:26:04;8.07;;;5.95;;
51828;SDS011;37881;48.024;8.774;2022-08-14T03:28:44;8.13;;;5.90;;
51828;SDS011;37881;48.024;8.774;2022-08-14T03:31:13;8.15;;;5.53;;
51828;SDS011;37881;48.024;8.774;2022-08-14T03:33:41;9.57;;;5.70;;
51828;SDS011;37881;48.024;8.774;2022-08-14T03:36:09;7.40;;;5.40;;
51828;SDS011;37881;48.024;8.774;2022-08-14T03:38:59;8.30;;;5.47;;
51828;SDS011;37881;48.024;8.774;2022-08-14T03:41:47;7.53;;;5.60;;
51828;SDS011;37881;48.024;8.774;2022-08-14T03:44:18;8.63;;;5.63;;
51828;SDS011;37881;48.024;8.774;2022-08-14T03:47:05;9.20;;;6.27;;
51828;SDS011;37881;48.024;8.774;2022-08-14T03:49:33;8.20;;;6.20;;
51828;SDS011;37881;48.024;8.774;2022-08-14T03:52:08;7.95;;;5.90;;
51828;SDS011;37881;48.024;8.774;2022-08-14T03:54:56;9.30;;;6.13;;
51828;SDS011;37881;48.024;8.774;2022-08-14T03:57:24;9.10;;;6.53;;
51828;SDS011;37881;48.024;8.774;2022-08-14T03:59:51;8.13;;;6.00;;
51828;SDS011;37881;48.024;8.774;2022-08-14T04:02:18;8.63;;;6.10;;
51828;SDS011;37881;48.024;8.774;2022-08-14T04:05:03;8.80;;;6.22;;
51828;SDS011;37881;48.024;8.774;2022-08-14T04:07:38;8.63;;;6.00;;
51828;SDS011;37881;48.024;8.774;2022-08-14T04:10:15;8.93;;;6.13;;
51828;SDS011;37881;48.024;8.774;2022-08-14T04:12:57;9.40;;;6.13;;
51828;SDS011;37881;48.024;8.774;2022-08-14T04:15:29;8.93;;;6.30;;
51828;SDS011;37881;48.024;8.774;2022-08-14T04:17:56;8.65;;;6.35;;
51828;SDS011;37881;48.024;8.774;2022-08-14T04:20:25;8.88;;;6.10;;
51828;SDS011;37881;48.024;8.774;2022-08-14T04:22:53;9.00;;;6.10;;
51828;SDS011;37881;48.024;8.774;2022-08-14T04:25:21;8.27;;;5.80;;
51828;SDS011;37881;48.024;8.774;2022-08-14T04:27:47;8.93;;;6.30;;
51828;SDS011;37881;48.024;8.774;2022-08-14T04:30:29;8.50;;;6.07;;
51828;SDS011;37881;48.024;8.774;2022-08-14T04:32:59;8.70;;;5.90;;
51828;SDS011;37881;48.024;8.774;2022-08-14T04:35:36;8.45;;;6.20;;
51828;SDS011;37881;48.024;8.774;2022-08-14T04:38:22;8.77;;;6.27;;
51828;SDS011;37881;48.024;8.774;2022-08-14T04:41:07;8.77;;;6.00;;
51828;SDS011;37881;48.024;8.774;2022-08-14T04:43:56;10.68;;;6.20;;
51828;SDS011;37881;48.024;8.774;2022-08-14T04:46:23;8.10;;;5.85;;
51828;SDS011;37881;48.024;8.774;2022-08-14T04:49:11;8.85;;;6.10;;
51828;SDS011;37881;48.024;8.774;2022-08-14T04:51:40;8.50;;;5.93;;
51828;SDS011;37881;48.024;8.774;2022-08-14T04:54:20;8.45;;;6.07;;
51828;SDS011;37881;48.024;8.774;2022-08-14T04:56:49;8.77;;;6.13;;
51828;SDS011;37881;48.024;8.774;2022-08-14T04:59:19;9.32;;;6.30;;
51828;SDS011;37881;48.024;8.774;2022-08-14T05:01:47;8.88;;;6.45;;
51828;SDS011;37881;48.024;8.774;2022-08-14T05:04:21;8.80;;;6.50;;
51828;SDS011;37881;48.024;8.774;2022-08-14T05:06:51;8.05;;;6.25;;
51828;SDS011;37881;48.024;8.774;2022-08-14T05:09:21;9.82;;;6.50;;
51828;SDS011;37881;48.024;8.774;2022-08-14T05:11:49;9.10;;;6.40;;
51828;SDS011;37881;48.024;8.774;2022-08-14T05:14:17;9.88;;;6.50;;
51828;SDS011;37881;48.024;8.774;2022-08-14T05:17:08;10.57;;;6.03;;
51828;SDS011;37881;48.024;8.774;2022-08-14T05:19:36;9.02;;;6.00;;
51828;SDS011;37881;48.024;8.774;2022-08-14T05:22:23;9.35;;;6.20;;
51828;SDS011;37881;48.024;8.774;2022-08-14T05:24:52;8.75;;;5.95;;
51828;SDS011;37881;48.024;8.774;2022-08-14T05:27:19;9.07;;;6.18;;
51828;SDS011;37881;48.024;8.774;2022-08-14T05:29:52;8.53;;;5.90;;
51828;SDS011;37881;48.024;8.774;2022-08-14T05:32:23;10.23;;;6.07;;
51828;SDS011;37881;48.024;8.774;2022-08-14T05:34:56;9.30;;;5.97;;
51828;SDS011;37881;48.024;8.774;2022-08-14T05:37:25;7.72;;;5.80;;
51828;SDS011;37881;48.024;8.774;2022-08-14T05:39:53;8.30;;;6.25;;
51828;SDS011;37881;48.024;8.774;2022-08-14T05:42:20;10.17;;;6.27;;
51828;SDS011;37881;48.024;8.774;2022-08-14T05:44:57;8.57;;;6.25;;
51828;SDS011;37881;48.024;8.774;2022-08-14T05:47:24;9.23;;;6.20;;
51828;SDS011;37881;48.024;8.774;2022-08-14T05:50:06;8.02;;;6.03;;
51828;SDS011;37881;48.024;8.774;2022-08-14T05:52:45;9.02;;;6.03;;
51828;SDS011;37881;48.024;8.774;2022-08-14T05:55:16;9.83;;;6.17;;
51828;SDS011;37881;48.024;8.774;2022-08-14T05:57:52;9.02;;;6.80;;
51828;SDS011;37881;48.024;8.774;2022-08-14T06:00:30;9.10;;;6.78;;
51828;SDS011;37881;48.024;8.774;2022-08-14T06:03:19;9.18;;;6.57;;
51828;SDS011;37881;48.024;8.774;2022-08-14T06:05:50;9.55;;;6.20;;
51828;SDS011;37881;48.024;8.774;2022-08-14T06:08:20;9.47;;;6.57;;
51828;SDS011;37881;48.024;8.774;2022-08-14T06:11:07;8.57;;;5.93;;
51828;SDS011;37881;48.024;8.774;2022-08-14T06:13:35;9.27;;;5.72;;
51828;SDS011;37881;48.024;8.774;2022-08-14T06:16:10;8.50;;;5.60;;
51828;SDS011;37881;48.024;8.774;2022-08-14T06:18:44;8.75;;;5.88;;
51828;SDS011;37881;48.024;8.774;2022-08-14T06:21:13;6.63;;;5.53;;
51828;SDS011;37881;48.024;8.774;2022-08-14T06:23:42;6.78;;;5.40;;
51828;SDS011;37881;48.024;8.774;2022-08-14T06:26:14;7.20;;;5.18;;
51828;SDS011;37881;48.024;8.774;2022-08-14T06:28:41;7.38;;;5.65;;
51828;SDS011;37881;48.024;8.774;2022-08-14T06:31:11;6.40;;;5.70;;
51828;SDS011;37881;48.024;8.774;2022-08-14T06:33:37;5.83;;;5.20;;
51828;SDS011;37881;48.024;8.774;2022-08-14T06:36:24;6.47;;;4.43;;
51828;SDS011;37881;48.024;8.774;2022-08-14T06:38:52;7.32;;;4.78;;
51828;SDS011;37881;48.024;8.774;2022-08-14T06:41:19;6.85;;;4.60;;
51828;SDS011;37881;48.024;8.774;2022-08-14T06:44:07;6.18;;;4.50;;
51828;SDS011;37881;48.024;8.774;2022-08-14T06:46:35;5.00;;;4.40;;
51828;SDS011;37881;48.024;8.774;2022-08-14T06:49:03;6.00;;;4.55;;
51828;SDS011;37881;48.024;8.774;2022-08-14T06:51:30;6.00;;;5.20;;
51828;SDS011;37881;48.024;8.774;2022-08-14T06:54:10;5.63;;;4.72;;
51828;SDS011;37881;48.024;8.774;2022-08-14T06:56:38;7.80;;;5.18;;
51828;SDS011;37881;48.024;8.774;2022-08-14T06:59:09;5.87;;;4.77;;
51828;SDS011;37881;48.024;8.774;2022-08-14T07:01:45;5.82;;;4.65;;
51828;SDS011;37881;48.024;8.774;2022-08-14T07:04:38;5.80;;;4.72;;
51828;SDS011;37881;48.024;8.774;2022-08-14T07:07:23;7.32;;;4.40;;
51828;SDS011;37881;48.024;8.774;2022-08-14T07:09:54;6.63;;;4.70;;
51828;SDS011;37881;48.024;8.774;2022-08-14T07:12:20;5.43;;;4.00;;
51828;SDS011;37881;48.024;8.774;2022-08-14T07:15:07;4.93;;;4.00;;
51828;SDS011;37881;48.024;8.774;2022-08-14T07:17:42;5.55;;;4.30;;
51828;SDS011;37881;48.024;8.774;2022-08-14T07:20:11;6.47;;;4.57;;
51828;SDS011;37881;48.024;8.774;2022-08-14T07:22:43;6.13;;;4.30;;
51828;SDS011;37881;48.024;8.774;2022-08-14T07:25:23;4.97;;;4.00;;
51828;SDS011;37881;48.024;8.774;2022-08-14T07:27:58;5.05;;;4.20;;
51828;SDS011;37881;48.024;8.774;2022-08-14T07:30:25;4.97;;;4.47;;
51828;SDS011;37881;48.024;8.774;2022-08-14T07:33:00;4.07;;;3.55;;
51828;SDS011;37881;48.024;8.774;2022-08-14T07:35:28;4.57;;;3.45;;
51828;SDS011;37881;48.024;8.774;2022-08-14T07:38:15;4.47;;;3.30;;
51828;SDS011;37881;48.024;8.774;2022-08-14T07:40:49;5.50;;;3.00;;
51828;SDS011;37881;48.024;8.774;2022-08-14T07:43:18;4.47;;;3.20;;
51828;SDS011;37881;48.024;8.774;2022-08-14T07:45:46;3.63;;;3.05;;
51828;SDS011;37881;48.024;8.774;2022-08-14T07:48:16;3.40;;;3.00;;
51828;SDS011;37881;48.024;8.774;2022-08-14T07:50:50;5.17;;;3.03;;
51828;SDS011;37881;48.024;8.774;2022-08-14T07:53:17;3.50;;;2.83;;
51828;SDS011;37881;48.024;8.774;2022-08-14T07:55:44;4.00;;;3.00;;
51828;SDS011;37881;48.024;8.774;2022-08-14T07:58:34;3.97;;;3.00;;
51828;SDS011;37881;48.024;8.774;2022-08-14T08:01:16;4.53;;;3.00;;
51828;SDS011;37881;48.024;8.774;2022-08-14T08:03:47;3.37;;;2.90;;
51828;SDS011;37881;48.024;8.774;2022-08-14T08:06:25;5.68;;;3.20;;
51828;SDS011;37881;48.024;8.774;2022-08-14T08:08:53;5.45;;;3.40;;
51828;SDS011;37881;48.024;8.774;2022-08-14T08:11:32;5.10;;;3.10;;
51828;SDS011;37881;48.024;8.774;2022-08-14T08:14:04;5.25;;;3.03;;
51828;SDS011;37881;48.024;8.774;2022-08-14T08:16:44;4.63;;;2.90;;
51828;SDS011;37881;48.024;8.774;2022-08-14T08:19:12;5.25;;;2.85;;
51828;SDS011;37881;48.024;8.774;2022-08-14T08:21:44;4.75;;;2.88;;
51828;SDS011;37881;48.024;8.774;2022-08-14T08:24:11;3.80;;;2.90;;
51828;SDS011;37881;48.024;8.774;2022-08-14T08:26:44;4.75;;;2.80;;
51828;SDS011;37881;48.024;8.774;2022-08-14T08:29:17;4.20;;;2.90;;
51828;SDS011;37881;48.024;8.774;2022-08-14T08:31:50;4.30;;;2.70;;
51828;SDS011;37881;48.024;8.774;2022-08-14T08:34:18;7.25;;;3.00;;
51828;SDS011;37881;48.024;8.774;2022-08-14T08:36:49;3.97;;;3.20;;
51828;SDS011;37881;48.024;8.774;2022-08-14T08:39:18;3.97;;;3.10;;
51828;SDS011;37881;48.024;8.774;2022-08-14T08:41:48;4.10;;;3.07;;
51828;SDS011;37881;48.024;8.774;2022-08-14T08:44:19;3.65;;;2.90;;
51828;SDS011;37881;48.024;8.774;2022-08-14T08:47:00;4.43;;;3.10;;
51828;SDS011;37881;48.024;8.774;2022-08-14T08:49:38;4.55;;;3.00;;
51828;SDS011;37881;48.024;8.774;2022-08-14T08:52:25;5.20;;;3.03;;
51828;SDS011;37881;48.024;8.774;2022-08-14T08:54:58;5.63;;;3.00;;
51828;SDS011;37881;48.024;8.774;2022-08-14T08:57:32;4.43;;;3.03;;
51828;SDS011;37881;48.024;8.774;2022-08-14T09:00:10;7.38;;;2.80;;
51828;SDS011;37881;48.024;8.774;2022-08-14T09:02:55;4.13;;;2.50;;
51828;SDS011;37881;48.024;8.774;2022-08-14T09:05:25;4.88;;;2.80;;
51828;SDS011;37881;48.024;8.774;2022-08-14T09:07:52;4.70;;;2.80;;
51828;SDS011;37881;48.024;8.774;2022-08-14T09:10:22;3.53;;;2.70;;
51828;SDS011;37881;48.024;8.774;2022-08-14T09:12:52;3.40;;;2.75;;
51828;SDS011;37881;48.024;8.774;2022-08-14T09:15:21;3.30;;;2.50;;
51828;SDS011;37881;48.024;8.774;2022-08-14T09:17:49;5.13;;;2.40;;
51828;SDS011;37881;48.024;8.774;2022-08-14T09:20:17;3.10;;;2.50;;
51828;SDS011;37881;48.024;8.774;2022-08-14T09:22:55;3.00;;;2.42;;
51828;SDS011;37881;48.024;8.774;2022-08-14T09:25:23;3.55;;;2.15;;
51828;SDS011;37881;48.024;8.774;2022-08-14T09:28:10;2.80;;;2.00;;
51828;SDS011;37881;48.024;8.774;2022-08-14T09:30:43;3.60;;;2.30;;
51828;SDS011;37881;48.024;8.774;2022-08-14T09:36:32;4.40;;;2.45;;
51828;SDS011;37881;48.024;8.774;2022-08-14T09:39:22;4.68;;;2.40;;
51828;SDS011;37881;48.024;8.774;2022-08-14T09:47:46;3.10;;;2.20;;
51828;SDS011;37881;48.024;8.774;2022-08-14T09:50:18;3.58;;;2.50;;
51828;SDS011;37881;48.024;8.774;2022-08-14T09:53:01;3.95;;;2.10;;
51828;SDS011;37881;48.024;8.774;2022-08-14T09:55:43;3.00;;;2.20;;
51828;SDS011;37881;48.024;8.774;2022-08-14T09:58:12;3.63;;;2.08;;
51828;SDS011;37881;48.024;8.774;2022-08-14T10:00:51;3.03;;;2.10;;
51828;SDS011;37881;48.024;8.774;2022-08-14T10:03:28;3.38;;;2.20;;
51828;SDS011;37881;48.024;8.774;2022-08-14T10:06:06;3.63;;;2.40;;
51828;SDS011;37881;48.024;8.774;2022-08-14T10:08:48;2.83;;;2.17;;
51828;SDS011;37881;48.024;8.774;2022-08-14T10:11:30;3.25;;;2.40;;
51828;SDS011;37881;48.024;8.774;2022-08-14T10:14:11;4.00;;;2.30;;
51828;SDS011;37881;48.024;8.774;2022-08-14T10:17:00;4.55;;;2.40;;
51828;SDS011;37881;48.024;8.774;2022-08-14T10:19:31;3.22;;;2.00;;
51828;SDS011;37881;48.024;8.774;2022-08-14T10:22:05;2.88;;;2.00;;
51828;SDS011;37881;48.024;8.774;2022-08-14T10:24:55;3.05;;;2.20;;
51828;SDS011;37881;48.024;8.774;2022-08-14T10:27:26;3.07;;;1.90;;
51828;SDS011;37881;48.024;8.774;2022-08-14T10:29:55;2.92;;;2.13;;
51828;SDS011;37881;48.024;8.774;2022-08-14T10:32:25;3.38;;;2.20;;
51828;SDS011;37881;48.024;8.774;2022-08-14T10:35:06;4.03;;;2.10;;
51828;SDS011;37881;48.024;8.774;2022-08-14T10:37:44;2.83;;;2.20;;
51828;SDS011;37881;48.024;8.774;2022-08-14T10:40:27;2.70;;;2.00;;
51828;SDS011;37881;48.024;8.774;2022-08-14T10:43:16;3.15;;;2.10;;
51828;SDS011;37881;48.024;8.774;2022-08-14T10:45:57;3.10;;;2.20;;
51828;SDS011;37881;48.024;8.774;2022-08-14T10:48:59;3.97;;;2.20;;
51828;SDS011;37881;48.024;8.774;2022-08-14T10:51:31;3.90;;;2.20;;
51828;SDS011;37881;48.024;8.774;2022-08-14T10:54:07;3.40;;;2.10;;
51828;SDS011;37881;48.024;8.774;2022-08-14T10:59:42;2.97;;;2.00;;
51828;SDS011;37881;48.024;8.774;2022-08-14T11:05:15;4.50;;;2.25;;
51828;SDS011;37881;48.024;8.774;2022-08-14T11:07:54;2.97;;;2.27;;
51828;SDS011;37881;48.024;8.774;2022-08-14T11:10:36;3.30;;;2.30;;
51828;SDS011;37881;48.024;8.774;2022-08-14T11:13:08;4.43;;;2.33;;
51828;SDS011;37881;48.024;8.774;2022-08-14T11:15:40;3.72;;;2.53;;
51828;SDS011;37881;48.024;8.774;2022-08-14T11:18:08;3.47;;;2.45;;
51828;SDS011;37881;48.024;8.774;2022-08-14T11:20:50;4.90;;;2.47;;
51828;SDS011;37881;48.024;8.774;2022-08-14T11:23:27;3.28;;;2.40;;
51828;SDS011;37881;48.024;8.774;2022-08-14T11:26:04;3.78;;;2.80;;
51828;SDS011;37881;48.024;8.774;2022-08-14T11:28:37;4.10;;;2.70;;
51828;SDS011;37881;48.024;8.774;2022-08-14T11:31:14;4.40;;;2.72;;
51828;SDS011;37881;48.024;8.774;2022-08-14T11:33:53;4.27;;;2.60;;
51828;SDS011;37881;48.024;8.774;2022-08-14T11:36:24;5.35;;;2.90;;
51828;SDS011;37881;48.024;8.774;2022-08-14T11:39:00;4.63;;;2.80;;
51828;SDS011;37881;48.024;8.774;2022-08-14T11:41:35;4.68;;;3.00;;
51828;SDS011;37881;48.024;8.774;2022-08-14T11:44:11;4.05;;;3.17;;
51828;SDS011;37881;48.024;8.774;2022-08-14T11:46:58;5.37;;;3.20;;
51828;SDS011;37881;48.024;8.774;2022-08-14T11:49:32;4.13;;;2.88;;
51828;SDS011;37881;48.024;8.774;2022-08-14T11:52:00;4.55;;;3.20;;
51828;SDS011;37881;48.024;8.774;2022-08-14T11:54:27;4.32;;;3.10;;
51828;SDS011;37881;48.024;8.774;2022-08-14T11:57:00;4.72;;;3.35;;
51828;SDS011;37881;48.024;8.774;2022-08-14T11:59:30;4.10;;;3.37;;
51828;SDS011;37881;48.024;8.774;2022-08-14T12:02:09;4.25;;;3.33;;
51828;SDS011;37881;48.024;8.774;2022-08-14T12:05:00;4.63;;;3.15;;
51828;SDS011;37881;48.024;8.774;2022-08-14T12:07:30;4.13;;;3.20;;
51828;SDS011;37881;48.024;8.774;2022-08-14T12:09:57;4.78;;;3.40;;
51828;SDS011;37881;48.024;8.774;2022-08-14T12:12:26;4.27;;;3.53;;
51828;SDS011;37881;48.024;8.774;2022-08-14T12:15:02;5.25;;;3.28;;
51828;SDS011;37881;48.024;8.774;2022-08-14T12:17:41;4.38;;;3.40;;
51828;SDS011;37881;48.024;8.774;2022-08-14T12:20:17;4.25;;;3.47;;
51828;SDS011;37881;48.024;8.774;2022-08-14T12:22:58;4.55;;;3.40;;
51828;SDS011;37881;48.024;8.774;2022-08-14T12:25:31;4.60;;;3.60;;
51828;SDS011;37881;48.024;8.774;2022-08-14T12:28:09;4.82;;;3.85;;
51828;SDS011;37881;48.024;8.774;2022-08-14T12:30:57;4.43;;;3.50;;
51828;SDS011;37881;48.024;8.774;2022-08-14T12:35:58;4.55;;;3.60;;
51828;SDS011;37881;48.024;8.774;2022-08-14T12:38:32;4.50;;;3.50;;
51828;SDS011;37881;48.024;8.774;2022-08-14T12:41:14;4.10;;;3.42;;
51828;SDS011;37881;48.024;8.774;2022-08-14T12:43:54;4.90;;;3.75;;
51828;SDS011;37881;48.024;8.774;2022-08-14T12:48:55;4.63;;;3.50;;
51828;SDS011;37881;48.024;8.774;2022-08-14T12:51:24;4.63;;;3.50;;
51828;SDS011;37881;48.024;8.774;2022-08-14T12:53:53;4.25;;;3.20;;
51828;SDS011;37881;48.024;8.774;2022-08-14T12:56:25;5.88;;;3.72;;
51828;SDS011;37881;48.024;8.774;2022-08-14T12:58:59;4.43;;;3.28;;
51828;SDS011;37881;48.024;8.774;2022-08-14T13:01:29;4.82;;;3.30;;
51828;SDS011;37881;48.024;8.774;2022-08-14T13:04:17;4.60;;;3.20;;
51828;SDS011;37881;48.024;8.774;2022-08-14T13:06:45;4.18;;;3.50;;
51828;SDS011;37881;48.024;8.774;2022-08-14T13:09:17;5.47;;;3.60;;
51828;SDS011;37881;48.024;8.774;2022-08-14T13:11:47;5.22;;;3.30;;
51828;SDS011;37881;48.024;8.774;2022-08-14T13:14:36;4.28;;;3.45;;
51828;SDS011;37881;48.024;8.774;2022-08-14T13:17:03;4.20;;;3.50;;
51828;SDS011;37881;48.024;8.774;2022-08-14T13:19:32;4.35;;;3.65;;
51828;SDS011;37881;48.024;8.774;2022-08-14T13:22:00;5.47;;;3.58;;
51828;SDS011;37881;48.024;8.774;2022-08-14T13:24:44;4.60;;;3.63;;
51828;SDS011;37881;48.024;8.774;2022-08-14T13:27:13;5.80;;;4.20;;
51828;SDS011;37881;48.024;8.774;2022-08-14T13:29:44;5.23;;;3.70;;
51828;SDS011;37881;48.024;8.774;2022-08-14T13:32:13;4.20;;;3.60;;
51828;SDS011;37881;48.024;8.774;2022-08-14T13:34:41;4.97;;;3.63;;
51828;SDS011;37881;48.024;8.774;2022-08-14T13:37:13;6.18;;;4.15;;
51828;SDS011;37881;48.024;8.774;2022-08-14T13:39:46;6.13;;;4.05;;
51828;SDS011;37881;48.024;8.774;2022-08-14T13:42:23;6.50;;;4.00;;
51828;SDS011;37881;48.024;8.774;2022-08-14T13:44:56;4.93;;;3.80;;
51828;SDS011;37881;48.024;8.774;2022-08-14T13:47:27;5.72;;;3.90;;
51828;SDS011;37881;48.024;8.774;2022-08-14T13:49:56;5.78;;;4.28;;
51828;SDS011;37881;48.024;8.774;2022-08-14T13:52:34;5.47;;;4.43;;
51828;SDS011;37881;48.024;8.774;2022-08-14T13:55:23;6.40;;;4.40;;
51828;SDS011;37881;48.024;8.774;2022-08-14T13:57:56;6.40;;;4.90;;
51828;SDS011;37881;48.024;8.774;2022-08-14T14:00:31;6.50;;;5.00;;
51828;SDS011;37881;48.024;8.774;2022-08-14T14:03:02;5.70;;;4.65;;
51828;SDS011;37881;48.024;8.774;2022-08-14T14:05:31;6.55;;;4.90;;
51828;SDS011;37881;48.024;8.774;2022-08-14T14:08:19;7.73;;;5.23;;
51828;SDS011;37881;48.024;8.774;2022-08-14T14:11:07;6.50;;;4.70;;
51828;SDS011;37881;48.024;8.774;2022-08-14T14:13:35;5.68;;;5.03;;
51828;SDS011;37881;48.024;8.774;2022-08-14T14:16:10;7.28;;;5.13;;
51828;SDS011;37881;48.024;8.774;2022-08-14T14:18:50;6.45;;;5.20;;
51828;SDS011;37881;48.024;8.774;2022-08-14T14:21:22;6.27;;;5.47;;
51828;SDS011;37881;48.024;8.774;2022-08-14T14:23:54;7.82;;;5.30;;
51828;SDS011;37881;48.024;8.774;2022-08-14T14:26:22;7.20;;;5.60;;
51828;SDS011;37881;48.024;8.774;2022-08-14T14:28:50;7.55;;;5.38;;
51828;SDS011;37881;48.024;8.774;2022-08-14T14:31:23;7.25;;;5.55;;
51828;SDS011;37881;48.024;8.774;2022-08-14T14:34:02;7.23;;;5.10;;
51828;SDS011;37881;48.024;8.774;2022-08-14T14:36:45;6.85;;;5.35;;
51828;SDS011;37881;48.024;8.774;2022-08-14T14:39:19;7.13;;;6.07;;
51828;SDS011;37881;48.024;8.774;2022-08-14T14:41:53;6.93;;;5.80;;
51828;SDS011;37881;48.024;8.774;2022-08-14T14:44:22;6.97;;;5.70;;
51828;SDS011;37881;48.024;8.774;2022-08-14T14:46:52;9.07;;;5.60;;
51828;SDS011;37881;48.024;8.774;2022-08-14T14:49:20;7.30;;;5.55;;
51828;SDS011;37881;48.024;8.774;2022-08-14T14:52:07;6.82;;;5.82;;
51828;SDS011;37881;48.024;8.774;2022-08-14T14:54:53;6.68;;;5.55;;
51828;SDS011;37881;48.024;8.774;2022-08-14T14:57:21;7.75;;;5.80;;
51828;SDS011;37881;48.024;8.774;2022-08-14T15:00:00;5.93;;;5.27;;
51828;SDS011;37881;48.024;8.774;2022-08-14T15:02:33;6.88;;;5.40;;
51828;SDS011;37881;48.024;8.774;2022-08-14T15:05:03;8.00;;;5.70;;
51828;SDS011;37881;48.024;8.774;2022-08-14T15:07:34;9.20;;;5.70;;
51828;SDS011;37881;48.024;8.774;2022-08-14T15:10:02;8.27;;;6.00;;
51828;SDS011;37881;48.024;8.774;2022-08-14T15:12:50;10.03;;;6.50;;
51828;SDS011;37881;48.024;8.774;2022-08-14T15:15:22;7.45;;;6.07;;
51828;SDS011;37881;48.024;8.774;2022-08-14T15:17:48;8.70;;;6.00;;
51828;SDS011;37881;48.024;8.774;2022-08-14T15:20:20;7.35;;;6.03;;
51828;SDS011;37881;48.024;8.774;2022-08-14T15:22:57;8.00;;;6.25;;
51828;SDS011;37881;48.024;8.774;2022-08-14T15:25:39;8.17;;;5.90;;
51828;SDS011;37881;48.024;8.774;2022-08-14T15:28:06;8.30;;;6.40;;
51828;SDS011;37881;48.024;8.774;2022-08-14T15:30:42;8.02;;;6.15;;
51828;SDS011;37881;48.024;8.774;2022-08-14T15:33:16;9.50;;;6.53;;
51828;SDS011;37881;48.024;8.774;2022-08-14T15:36:23;7.30;;;6.50;;
51828;SDS011;37881;48.024;8.774;2022-08-14T15:38:55;7.90;;;6.60;;
51828;SDS011;37881;48.024;8.774;2022-08-14T15:41:23;9.95;;;6.70;;
51828;SDS011;37881;48.024;8.774;2022-08-14T15:43:50;12.88;;;6.60;;
51828;SDS011;37881;48.024;8.774;2022-08-14T15:46:19;7.72;;;6.60;;
51828;SDS011;37881;48.024;8.774;2022-08-14T15:49:07;8.23;;;6.65;;
51828;SDS011;37881;48.024;8.774;2022-08-14T15:51:34;9.70;;;6.87;;
51828;SDS011;37881;48.024;8.774;2022-08-14T15:54:07;8.82;;;7.00;;
51828;SDS011;37881;48.024;8.774;2022-08-14T15:56:37;9.52;;;6.85;;